Latest Weather Observations for Wilkins Runway*

IDT60801

Issued at 3:32 am EDT Sunday 11 December 2016 (issued every 30 minutes, with the page automatically refreshed every 10 minutes)

About weather observations | Map of weather stations | Latest weather observations for ANT | Other Formats
Station Details ID: 300050 Name: WILKINS RUNWAY EAST Lat: -66.68 Lon: 111.53 Height: 753.0 m
Data from the previous 72 hours. | See also: Recent months for locations in Antarctica
Date/Time
EDT
Temp
°C
App
Temp
°C
Dew
Point
°C
Rel
Hum
%
Delta-T
°C
Wind Press
QNH
hPa
Press
MSL
hPa
Rain since
9am
mm
Dir  Spd
km/h
Gust
km/h
Spd
kts
Gust
kts
11/03:30am -9.1 -17.3 -13.2 72 - ENE 26 32 14 17 985.8 - -
11/03:00am -10.0 -16.9 -13.6 75 - NE 19 20 10 11 986.0 - -
11/02:30am -8.9 -16.3 -12.7 74 - NE 22 30 12 16 985.9 - -
11/02:00am -8.3 -17.2 -12.4 72 - E 30 33 16 18 985.8 - -
11/01:30am -9.0 -17.2 -13.3 71 - E 26 28 14 15 985.7 - -
11/01:00am -8.2 -15.2 -12.5 71 - E 20 24 11 13 985.9 - -
11/12:30am -7.5 -15.6 -12.2 69 - E 26 30 14 16 985.8 - -
11/12:00am -7.1 -14.9 -12.0 68 - E 24 28 13 15 985.8 - -
 
Date/Time
EDT
Temp
°C
App
Temp
°C
Dew
Point
°C
Rel
Hum
%
Delta-T
°C
Wind Press
QNH
hPa
Press
MSL
hPa
Rain since
9am
mm
Dir  Spd
km/h
Gust
km/h
Spd
kts
Gust
kts
10/11:30pm -6.6 -13.4 -11.3 69 - ESE 19 20 10 11 986.1 - -
10/11:00pm -6.1 -13.1 -11.8 64 - E 20 24 11 13 986.2 - -
10/10:30pm -5.7 -12.7 -11.4 64 - E 20 24 11 13 986.6 - -
10/10:00pm -5.4 -12.4 -11.5 62 - E 20 24 11 13 986.2 - -
10/09:30pm -5.1 -12.1 -11.4 61 - E 20 24 11 13 986.4 - -
10/09:00pm -4.8 -10.9 -12.4 55 - ENE 15 22 8 12 986.4 - -
10/08:30pm -4.8 -11.6 -12.4 55 - E 19 22 10 12 986.2 - -
10/08:00pm -4.7 -10.8 -12.1 56 - E 15 20 8 11 986.1 - -
10/07:30pm -4.6 -11.1 -12.5 54 - ENE 17 19 9 10 986.0 - -
10/07:00pm -4.4 -10.4 -11.6 57 - E 15 19 8 10 985.9 - -
10/06:30pm -4.1 -9.8 -12.5 52 - E 13 20 7 11 985.8 - -
10/06:00pm -3.6 -8.0 -13.0 48 - E 6 11 3 6 985.9 - -
10/05:30pm -4.4 -9.7 -11.8 56 - ESE 11 17 6 9 985.7 - -
10/05:00pm -4.5 -8.1 -12.8 52 - S 2 7 1 4 985.7 - -
10/04:30pm -4.5 -8.9 -13.1 51 - S 6 11 3 6 985.8 - -
10/04:00pm -5.0 -9.4 -13.3 52 - SSW 6 11 3 6 985.8 - -
10/03:30pm -5.1 -9.2 -13.6 51 - S 4 7 2 4 985.8 - -
10/03:00pm -3.9 -8.0 -13.8 46 - ENE 4 7 2 4 985.7 - -
10/02:30pm -2.8 -7.3 -14.8 39 - N 6 13 3 7 985.8 - -
10/02:00pm -3.2 -7.6 -13.1 46 - NNE 6 11 3 6 985.7 - -
10/01:30pm -5.5 -10.8 -12.9 56 - NNE 11 17 6 9 985.7 - -
10/01:00pm -5.7 -10.7 -14.0 52 - NNE 9 17 5 9 985.8 - -
10/12:30pm -6.3 -13.8 -14.1 54 - NE 22 35 12 19 985.8 - -
10/12:00pm -5.7 -10.1 -12.8 57 - ENE 6 11 3 6 985.6 - -
10/11:30am -6.3 -11.3 -14.1 54 - E 9 28 5 15 985.6 - -
10/11:00am -6.4 -12.3 -15.3 49 - E 13 26 7 14 985.4 - -
10/10:30am -7.4 -11.9 -14.0 59 - SW 6 17 3 9 985.3 - -
10/10:02am -7.6 -16.2 -13.6 62 - ESE 28 56 15 30 985.2 - -
10/10:00am -7.4 -15.6 -13.0 64 - ESE 26 56 14 30 985.4 - -
10/09:43am -7.8 -16.8 -13.8 62 - E 30 48 16 26 985.2 - -
10/09:40am -7.7 -16.3 -13.5 63 - E 28 50 15 27 985.2 - -
10/09:30am -7.7 -14.8 -13.9 61 - E 20 37 11 20 985.2 - -
10/09:00am -8.0 -15.5 -14.2 61 - E 22 43 12 23 985.2 - -
10/08:38am -8.0 -16.6 -14.0 62 - E 28 46 15 25 984.6 - -
10/08:34am -8.0 -16.6 -14.0 62 - E 28 46 15 25 984.6 - -
10/08:30am -8.0 -16.3 -14.0 62 - E 26 35 14 19 984.7 - -
10/08:00am -8.0 -14.2 -14.2 61 - E 15 30 8 16 984.7 - -
10/07:38am -7.8 -16.8 -14.4 59 - SE 30 63 16 34 984.8 - -
10/07:30am -7.7 -15.6 -14.5 58 - E 24 63 13 34 984.5 - -
10/07:06am -7.0 -16.6 -14.5 55 - E 33 52 18 28 984.6 - -
10/07:00am -7.5 -16.2 -14.5 57 - E 28 50 15 27 984.7 - -
10/06:52am -8.0 -17.6 -14.2 61 - SW 33 59 18 32 984.7 - -
10/06:48am -8.0 -18.0 -14.2 61 - SW 35 59 19 32 984.7 - -
10/06:44am -8.3 -15.2 -13.9 64 - E 19 69 10 37 984.6 - -
10/06:40am -8.3 -14.8 -13.9 64 - ESE 17 32 9 17 984.6 - -
10/06:34am -8.2 -19.3 -13.8 64 - ENE 41 70 22 38 983.3 - -
10/06:30am -8.2 -19.3 -13.8 64 - E 41 70 22 38 983.3 - -
10/06:27am -8.1 -17.7 -14.1 62 - ESE 33 52 18 28 984.1 - -
10/06:23am -8.1 -17.7 -14.1 62 - ESE 33 52 18 28 984.1 - -
10/06:00am -8.4 -13.4 -14.2 63 - NNW 9 19 5 10 984.3 - -
10/05:30am -9.0 -14.0 -13.4 70 - S 9 22 5 12 984.4 - -
10/05:27am -9.0 -20.6 -13.4 70 - E 44 63 24 34 983.7 - -
10/05:26am -9.1 -16.0 -13.4 71 - SE 19 24 10 13 984.0 - -
10/05:25am -9.1 -21.5 -13.2 72 - E 48 63 26 34 983.3 - -
10/05:20am -9.0 -22.9 -13.3 71 - E 56 74 30 40 982.9 - -
10/05:17am -9.2 -19.9 -13.3 72 - E 39 48 21 26 983.0 - -
10/05:00am -9.3 -24.1 -12.7 76 - ESE 61 76 33 41 982.2 - -
10/04:30am -9.1 -23.2 -12.9 74 - E 57 70 31 38 981.7 - -
10/04:00am -9.3 -23.4 -12.6 77 - E 57 67 31 36 981.7 - -
10/03:30am -9.0 -23.5 -12.9 73 - E 59 74 32 40 981.8 - -
10/03:18am -9.0 -23.0 -12.4 76 - E 57 76 31 41 981.6 - -
10/03:14am -9.0 -23.0 -12.4 76 - E 57 76 31 41 981.6 - -
10/03:00am -8.8 -22.8 -12.2 76 - E 57 69 31 37 981.4 - -
10/02:30am -9.2 -23.3 -12.6 76 - E 57 70 31 38 981.6 - -
10/02:11am -9.0 -23.4 -12.4 76 - E 59 78 32 42 981.3 - -
10/02:00am -9.3 -24.1 -12.7 76 - E 61 72 33 39 981.4 - -
10/01:30am -9.3 -24.1 -12.7 76 - E 61 74 33 40 981.4 - -
10/01:03am -9.4 -23.5 -13.2 74 - E 57 76 31 41 981.6 - -
10/01:00am -9.5 -23.6 -13.2 74 - E 57 76 31 41 981.5 - -
10/12:30am -8.9 -22.8 -12.8 73 - E 56 78 30 42 981.6 - -
10/12:23am -8.9 -23.3 -12.3 76 - E 59 80 32 43 981.2 - -
10/12:19am -8.9 -23.3 -12.3 76 - E 59 80 32 43 981.2 - -
10/12:00am -8.6 -23.4 -12.4 74 - E 61 74 33 40 981.4 - -
 
Date/Time
EDT
Temp
°C
App
Temp
°C
Dew
Point
°C
Rel
Hum
%
Delta-T
°C
Wind Press
QNH
hPa
Press
MSL
hPa
Rain since
9am
mm
Dir  Spd
km/h
Gust
km/h
Spd
kts
Gust
kts
09/11:30pm -8.4 -22.4 -12.2 74 - E 57 72 31 39 981.5 - -
09/11:01pm -8.5 -22.0 -12.1 75 - E 54 72 29 39 981.8 - -
09/11:00pm -8.5 -22.3 -12.0 76 - E 56 72 30 39 982.2 - -
09/10:30pm -8.3 -22.3 -12.3 73 - E 57 85 31 46 982.2 - -
09/10:00pm -8.1 -22.2 -12.6 70 - E 57 78 31 42 981.7 - -
09/09:32pm -7.9 -21.0 -12.0 72 - E 52 70 28 38 981.5 - -
09/09:30pm -7.6 -20.7 -11.9 71 - E 52 67 28 36 981.9 - -
09/09:00pm -7.5 -20.2 -12.2 69 - E 50 74 27 40 981.6 - -
09/08:30pm -7.1 -19.4 -12.2 67 - E 48 74 26 40 981.7 - -
09/08:19pm -6.9 -18.8 -11.4 70 - E 46 65 25 35 981.6 - -
09/08:15pm -6.9 -18.8 -11.4 70 - E 46 65 25 35 981.6 - -
09/08:02pm -6.8 -19.5 -12.6 63 - E 50 69 27 37 981.6 - -
09/08:01pm -6.5 -18.7 -11.0 70 - E 48 63 26 34 981.6 - -
09/08:00pm -6.5 -18.8 -11.6 67 - E 48 69 26 37 982.2 - -
09/07:58pm -6.8 -19.5 -12.6 63 - E 50 69 27 37 981.6 - -
09/07:56pm -6.5 -18.8 -11.6 67 - E 48 63 26 34 981.9 - -
09/07:44pm -6.8 -19.1 -12.1 66 - E 48 69 26 37 981.4 - -
09/07:40pm -6.8 -19.1 -12.1 66 - E 48 69 26 37 981.4 - -
09/07:33pm -6.6 -18.9 -11.3 69 - E 48 65 26 35 981.8 - -
09/07:30pm -6.6 -18.9 -11.7 67 - E 48 65 26 35 981.9 - -
09/07:29pm -6.6 -19.2 -11.3 69 - E 50 65 27 35 981.8 - -
09/07:26pm -6.8 -19.5 -11.9 67 - E 50 65 27 35 981.9 - -
09/07:00pm -6.6 -19.7 -11.9 66 - E 52 70 28 38 981.6 - -
09/06:54pm -6.7 -19.4 -12.0 66 - E 50 70 27 38 981.5 - -
09/06:50pm -6.7 -19.4 -12.0 66 - E 50 70 27 38 981.5 - -
09/06:48pm -6.4 -19.4 -10.9 70 - E 52 69 28 37 981.6 - -
09/06:44pm -6.4 -19.4 -10.9 70 - E 52 69 28 37 981.6 - -
09/06:31pm -6.5 -19.2 -11.4 68 - E 50 69 27 37 982.0 - -
09/06:30pm -6.2 -18.8 -10.4 72 - E 50 69 27 37 981.7 - -
09/06:16pm -6.2 -18.4 -10.8 70 - E 48 67 26 36 982.2 - -
09/06:12pm -6.2 -18.4 -10.8 70 - E 48 67 26 36 982.2 - -
09/06:00pm -6.4 -19.8 -11.1 69 - E 54 65 29 35 981.7 - -
09/05:42pm -6.4 -18.0 -12.3 63 - E 44 65 24 35 981.4 - -
09/05:32pm -6.0 -17.9 -12.1 62 - E 46 65 25 35 981.9 - -
09/05:30pm -6.0 -18.3 -11.9 63 - E 48 65 26 35 981.8 - -
09/05:00pm -6.0 -16.9 -11.3 66 - E 41 57 22 31 981.6 - -
09/04:52pm -6.2 -16.0 -11.5 66 - E 35 54 19 29 981.9 - -
09/04:50pm -6.0 -15.3 -12.3 61 - E 32 43 17 23 982.2 - -
09/04:43pm -6.3 -20.3 -11.0 69 - E 57 65 31 35 981.7 - -
09/04:40pm -6.3 -16.9 -12.4 62 - E 39 78 21 42 981.5 - -
09/04:36pm -6.3 -16.9 -12.4 62 - E 39 78 21 42 981.5 - -
09/04:30pm -5.9 -15.6 -10.5 70 - E 35 52 19 28 982.0 - -
09/04:00pm -6.1 -16.0 -12.4 61 - E 35 65 19 35 982.3 - -
09/03:42pm -6.2 -15.6 -11.7 65 - E 33 52 18 28 982.5 - -
09/03:30pm -5.9 -15.3 -11.2 66 - E 33 50 18 27 982.4 - -
09/03:29pm -6.1 -15.4 -11.8 64 - E 32 50 17 27 982.3 - -
09/03:25pm -6.1 -15.4 -11.8 64 - E 32 50 17 27 982.3 - -
09/03:00pm -6.4 -16.2 -11.9 65 - E 35 50 19 27 982.3 - -
09/02:30pm -6.1 -15.9 -11.2 67 - E 35 46 19 25 982.4 - -
09/02:00pm -6.7 -17.7 -12.5 63 - E 41 46 22 25 982.5 - -
09/01:30pm -6.8 -17.4 -12.3 65 - E 39 46 21 25 982.6 - -
09/01:00pm -6.9 -18.3 -12.3 65 - E 43 50 23 27 982.7 - -
09/12:30pm -7.1 -17.0 -12.5 65 - E 35 43 19 23 982.8 - -
09/12:00pm -7.2 -16.7 -13.0 63 - E 33 46 18 25 982.8 - -
09/11:30am -7.4 -16.9 -13.0 64 - E 33 41 18 22 983.1 - -
09/11:00am -7.6 -17.1 -13.0 65 - E 33 41 18 22 983.1 - -
09/10:30am -7.8 -18.1 -13.0 66 - E 37 46 20 25 983.0 - -
09/10:00am -8.2 -17.7 -13.2 67 - E 33 41 18 22 983.2 - -
09/09:30am -8.7 -18.1 -13.9 66 - E 32 39 17 21 983.2 - -
09/09:00am -9.7 -17.6 -14.3 69 - ESE 24 28 13 15 983.6 - -
09/08:30am -9.8 -18.4 -14.2 70 - E 28 30 15 16 983.6 - -
09/08:00am -10.9 -18.5 -15.3 70 - E 22 26 12 14 983.6 - -
09/07:30am -11.7 -18.9 -15.4 74 - ESE 20 24 11 13 983.7 - -
09/07:00am -11.6 -18.8 -15.4 73 - ESE 20 24 11 13 983.7 - -
09/06:30am -11.7 -18.3 -15.7 72 - ESE 17 20 9 11 983.8 - -
09/06:00am -11.4 -19.0 -15.4 72 - ESE 22 28 12 15 983.9 - -
09/05:30am -10.4 -17.5 -14.3 73 - ESE 20 26 11 14 984.0 - -
09/05:00am -9.6 -17.4 -13.3 74 - E 24 24 13 13 984.1 - -
09/04:30am -8.9 -15.9 -12.5 75 - ESE 20 22 11 12 984.3 - -
09/04:00am -8.4 -16.9 -12.0 75 - ESE 28 33 15 18 984.4 - -
09/03:30am -8.2 -16.3 -12.2 73 - ESE 26 32 14 17 984.4 - -
09/03:00am -8.1 -15.5 -11.9 74 - ESE 22 24 12 13 984.4 - -
09/02:30am -7.9 -16.0 -11.9 73 - ESE 26 32 14 17 984.3 - -
09/02:00am -7.8 -16.3 -12.1 71 - ESE 28 32 15 17 984.3 - -
09/01:30am -7.8 -14.8 -11.9 72 - E 20 30 11 16 984.1 - -
09/01:00am -7.6 -15.0 -11.8 72 - E 22 24 12 13 984.3 - -
09/12:30am -8.3 -15.3 -11.8 76 - E 20 28 11 15 984.4 - -
09/12:00am -8.2 -15.6 -12.0 74 - ESE 22 26 12 14 984.3 - -
 
Date/Time
EDT
Temp
°C
App
Temp
°C
Dew
Point
°C
Rel
Hum
%
Delta-T
°C
Wind Press
QNH
hPa
Press
MSL
hPa
Rain since
9am
mm
Dir  Spd
km/h
Gust
km/h
Spd
kts
Gust
kts
08/11:30pm -7.5 -14.3 -11.7 72 - E 19 22 10 12 984.3 - -
08/11:00pm -6.9 -14.3 -12.0 67 - E 22 24 12 13 984.2 - -
08/10:30pm -6.5 -14.9 -11.0 70 - E 28 33 15 18 984.3 - -
08/10:00pm -6.5 -15.3 -11.2 69 - E 30 35 16 19 984.1 - -
08/09:30pm -6.0 -13.7 -10.7 69 - E 24 30 13 16 984.1 - -
08/09:00pm -5.7 -14.9 -11.6 63 - E 32 35 17 19 984.0 - -
08/08:30pm -5.5 -13.6 -11.0 65 - ENE 26 35 14 19 984.0 - -
08/08:00pm -6.0 -13.4 -11.9 63 - NE 22 26 12 14 984.0 - -
08/07:30pm -6.0 -14.2 -12.5 60 - ENE 26 33 14 18 983.9 - -
08/07:00pm -5.9 -14.4 -12.4 60 - ENE 28 35 15 19 983.8 - -
08/06:30pm -5.9 -15.2 -12.6 59 - E 32 35 17 19 983.8 - -
08/06:00pm -5.9 -15.2 -12.2 61 - E 32 37 17 20 983.9 - -
08/05:30pm -6.4 -16.6 -12.1 64 - ENE 37 43 20 23 983.8 - -
08/05:00pm -6.7 -16.6 -12.2 65 - E 35 43 19 23 983.7 - -
08/04:30pm -6.7 -16.6 -13.1 60 - E 35 39 19 21 983.7 - -
08/04:00pm -6.6 -15.9 -12.8 61 - E 32 41 17 22 983.8 - -
08/03:30pm -6.7 -16.6 -12.5 63 - E 35 41 19 22 983.8 - -
08/03:00pm -6.7 -16.5 -12.0 66 - E 35 43 19 23 983.9 - -

Other Formats:

Comma delimited format used in spreadsheet applications
http://www.bom.gov.au/fwo/IDT60803/IDT60803.89615.axf

JavaScript Object Notation format (JSON) in row-major order
http://www.bom.gov.au/fwo/IDT60803/IDT60803.89615.json